createdAt,value
2023-02-08T00:00:08.676Z,72.11
2023-02-08T00:01:08.625Z,70.42
2023-02-08T00:02:08.601Z,67.07
2023-02-08T00:03:08.583Z,70.09
2023-02-08T00:04:08.587Z,72.31
2023-02-08T00:05:08.570Z,68.16
2023-02-08T00:06:08.524Z,68.75
2023-02-08T00:07:08.504Z,70.63
2023-02-08T00:08:08.492Z,71.07
2023-02-08T00:09:08.474Z,70.44
2023-02-08T00:10:08.480Z,68.59
2023-02-08T00:11:08.429Z,73.69
2023-02-08T00:12:08.414Z,71.05
2023-02-08T00:13:08.394Z,73.45
2023-02-08T00:14:08.368Z,69.86
2023-02-08T00:15:08.376Z,71.11
2023-02-08T00:16:08.377Z,71.96
2023-02-08T00:17:08.316Z,70.18
2023-02-08T00:18:08.291Z,70.68
2023-02-08T00:19:08.271Z,70.69
2023-02-08T00:20:08.281Z,72.62
2023-02-08T00:21:08.234Z,72.00
2023-02-08T00:22:08.219Z,74.20
2023-02-08T00:23:08.195Z,73.99
2023-02-08T00:24:08.177Z,72.16
2023-02-08T00:25:08.189Z,72.69
2023-02-08T00:26:08.145Z,71.73
2023-02-08T00:27:08.124Z,72.48
2023-02-08T00:28:09.511Z,71.86
2023-02-08T00:29:09.094Z,74.25
2023-02-08T00:30:08.094Z,70.45
2023-02-08T00:31:08.173Z,73.42
2023-02-08T00:32:08.032Z,70.45
2023-02-08T00:33:08.010Z,74.56
2023-02-08T00:34:08.010Z,72.97
2023-02-08T00:35:07.998Z,74.15
2023-02-08T00:36:07.952Z,72.33
2023-02-08T00:37:07.920Z,74.36
2023-02-08T00:38:07.904Z,75.96
2023-02-08T00:39:07.888Z,73.50
2023-02-08T00:40:07.897Z,75.15
2023-02-08T00:41:07.853Z,75.20
2023-02-08T00:42:07.826Z,75.30
2023-02-08T00:43:07.802Z,71.61
2023-02-08T00:44:07.784Z,73.74
2023-02-08T00:45:07.797Z,73.58
2023-02-08T00:46:07.748Z,71.26
2023-02-08T00:47:07.728Z,71.87
2023-02-08T00:48:07.704Z,72.29
2023-02-08T00:49:07.688Z,73.50
2023-02-08T00:50:07.696Z,72.85
2023-02-08T00:51:07.659Z,73.88
2023-02-08T00:52:07.628Z,73.33
2023-02-08T00:53:07.602Z,70.63
2023-02-08T00:54:07.585Z,71.09
2023-02-08T00:55:07.592Z,72.03
2023-02-08T00:56:07.545Z,68.48
2023-02-08T00:57:07.527Z,72.66
2023-02-08T00:58:07.503Z,73.35
2023-02-08T00:59:07.486Z,72.11
2023-02-08T01:00:07.495Z,72.61
2023-02-08T01:01:07.442Z,72.26
2023-02-08T01:02:08.482Z,73.68
2023-02-08T01:03:07.410Z,72.89
2023-02-08T01:04:07.385Z,68.92
2023-02-08T01:05:07.395Z,74.36
2023-02-08T01:06:07.344Z,74.10
2023-02-08T01:07:07.331Z,72.43
2023-02-08T01:08:07.309Z,73.37
2023-02-08T01:09:07.287Z,72.61
2023-02-08T01:10:07.297Z,70.83
2023-02-08T01:11:07.245Z,72.29
2023-02-08T01:12:07.227Z,69.92
2023-02-08T01:13:07.204Z,72.76
2023-02-08T01:14:07.186Z,71.75
2023-02-08T01:15:07.196Z,72.66
2023-02-08T01:16:07.174Z,72.50
2023-02-08T01:17:07.126Z,73.17
2023-02-08T01:18:07.114Z,71.66
2023-02-08T01:19:07.087Z,70.76
2023-02-08T01:20:07.093Z,70.06
2023-02-08T01:21:07.048Z,70.87
2023-02-08T01:22:07.027Z,69.37
2023-02-08T01:23:06.999Z,71.44
2023-02-08T01:24:06.985Z,73.18
2023-02-08T01:25:06.990Z,74.23
2023-02-08T01:26:06.951Z,75.00
2023-02-08T01:27:06.929Z,74.74
2023-02-08T01:28:06.950Z,72.72
2023-02-08T01:29:06.880Z,73.88
2023-02-08T01:30:06.894Z,72.26
2023-02-08T01:31:06.903Z,74.41
2023-02-08T01:32:06.834Z,75.35
2023-02-08T01:33:06.804Z,69.94
2023-02-08T01:34:06.797Z,66.45
2023-02-08T01:35:06.792Z,74.87
2023-02-08T01:36:07.749Z,72.80
2023-02-08T01:37:06.779Z,73.89
2023-02-08T01:38:06.700Z,75.75
2023-02-08T01:39:06.682Z,75.69
2023-02-08T01:40:06.662Z,74.71
2023-02-08T01:41:06.666Z,72.55
2023-02-08T01:42:06.626Z,74.85
2023-02-08T01:43:06.601Z,75.28
2023-02-08T01:44:06.583Z,74.67
2023-02-08T01:45:06.563Z,75.89
2023-02-08T01:46:06.592Z,77.06
2023-02-08T01:47:06.522Z,75.20
2023-02-08T01:48:06.497Z,71.75
2023-02-08T01:49:06.480Z,73.00
2023-02-08T01:50:06.461Z,76.03
2023-02-08T01:51:06.463Z,74.31
2023-02-08T01:52:06.418Z,75.55
2023-02-08T01:53:06.429Z,76.18
2023-02-08T01:54:06.380Z,72.78
2023-02-08T01:55:06.361Z,72.44
2023-02-08T01:56:06.361Z,76.37
2023-02-08T01:57:06.314Z,75.39
2023-02-08T01:58:06.299Z,75.82
2023-02-08T01:59:06.274Z,74.01
2023-02-08T02:00:06.303Z,75.98
2023-02-08T02:01:06.298Z,75.61
2023-02-08T02:02:06.213Z,76.33
2023-02-08T02:03:06.193Z,74.48
2023-02-08T02:04:06.215Z,75.37
2023-02-08T02:05:06.155Z,76.14
2023-02-08T02:06:06.164Z,72.84
2023-02-08T02:07:06.109Z,75.15
2023-02-08T02:08:06.087Z,72.76
2023-02-08T02:09:06.071Z,72.00
2023-02-08T02:10:06.045Z,73.84
2023-02-08T02:11:06.059Z,74.51
2023-02-08T02:12:06.008Z,73.67
2023-02-08T02:13:05.987Z,73.10
2023-02-08T02:14:05.969Z,74.52
2023-02-08T02:15:05.947Z,74.52
2023-02-08T02:16:05.993Z,73.68
2023-02-08T02:17:05.915Z,73.87
2023-02-08T02:18:05.881Z,72.35
2023-02-08T02:19:05.866Z,75.33
2023-02-08T02:20:05.843Z,74.00
2023-02-08T02:21:05.854Z,74.48
2023-02-08T02:22:05.817Z,75.62
2023-02-08T02:23:05.806Z,76.05
2023-02-08T02:24:05.763Z,76.88
2023-02-08T02:25:05.736Z,75.28
2023-02-08T02:26:05.716Z,74.05
2023-02-08T02:27:05.697Z,75.00
2023-02-08T02:28:05.783Z,74.89
2023-02-08T02:29:05.654Z,75.07
2023-02-08T02:30:05.639Z,73.24
2023-02-08T02:31:05.650Z,75.46
2023-02-08T02:32:05.595Z,74.81
2023-02-08T02:33:05.575Z,74.96
2023-02-08T02:34:05.553Z,72.64
2023-02-08T02:35:05.538Z,75.29
2023-02-08T02:36:05.543Z,73.89
2023-02-08T02:37:05.492Z,73.01
2023-02-08T02:38:05.471Z,73.29
2023-02-08T02:39:05.455Z,74.21
2023-02-08T02:40:05.428Z,75.61
2023-02-08T02:41:05.439Z,75.18
2023-02-08T02:42:05.391Z,73.43
2023-02-08T02:43:05.409Z,74.84
2023-02-08T02:44:05.357Z,73.62
2023-02-08T02:45:05.330Z,71.88
2023-02-08T02:46:05.322Z,73.40
2023-02-08T02:47:05.285Z,71.84
2023-02-08T02:48:05.294Z,72.91
2023-02-08T02:49:05.248Z,74.64
2023-02-08T02:50:05.236Z,73.50
2023-02-08T02:51:05.243Z,74.89
2023-02-08T02:52:05.188Z,75.46
2023-02-08T02:53:05.165Z,76.37
2023-02-08T02:54:05.156Z,75.05
2023-02-08T02:55:05.152Z,74.03
2023-02-08T02:56:05.139Z,75.08
2023-02-08T02:57:05.072Z,75.58
2023-02-08T02:58:06.060Z,74.94
2023-02-08T02:59:05.047Z,74.64
2023-02-08T03:00:05.022Z,74.93
2023-02-08T03:01:05.072Z,76.03
2023-02-08T03:02:04.988Z,76.06
2023-02-08T03:03:04.958Z,75.12
2023-02-08T03:04:04.980Z,73.92
2023-02-08T03:05:04.922Z,74.57
2023-02-08T03:06:04.905Z,75.05
2023-02-08T03:07:04.885Z,74.59
2023-02-08T03:08:04.857Z,75.05
2023-02-08T03:09:04.865Z,76.30
2023-02-08T03:10:04.826Z,75.05
2023-02-08T03:11:04.832Z,75.39
2023-02-08T03:12:04.785Z,75.46
2023-02-08T03:13:04.770Z,75.72
2023-02-08T03:14:04.744Z,75.58
2023-02-08T03:15:04.795Z,71.77
2023-02-08T03:16:04.735Z,73.68
2023-02-08T03:17:04.686Z,72.67
2023-02-08T03:18:04.672Z,74.40
2023-02-08T03:19:04.653Z,72.39
2023-02-08T03:20:04.619Z,73.03
2023-02-08T03:21:04.638Z,72.64
2023-02-08T03:22:04.582Z,71.81
2023-02-08T03:23:04.561Z,73.45
2023-02-08T03:24:04.537Z,75.14
2023-02-08T03:25:04.542Z,73.50
2023-02-08T03:26:04.541Z,76.26
2023-02-08T03:27:04.482Z,75.23
2023-02-08T03:28:05.478Z,72.99
2023-02-08T03:29:04.439Z,73.58
2023-02-08T03:30:04.422Z,74.72
2023-02-08T03:31:04.500Z,75.53
2023-02-08T03:32:04.419Z,76.10
2023-02-08T03:33:04.362Z,76.95
2023-02-08T03:34:04.341Z,77.19
2023-02-08T03:35:04.329Z,76.77
2023-02-08T03:36:04.337Z,78.18
2023-02-08T03:37:04.276Z,77.52
2023-02-08T03:38:04.263Z,77.09
2023-02-08T03:39:04.244Z,76.76
2023-02-08T03:40:04.263Z,75.65
2023-02-08T03:41:04.202Z,76.27
2023-02-08T03:42:04.212Z,74.59
2023-02-08T03:43:04.174Z,75.92
2023-02-08T03:44:04.139Z,76.01
2023-02-08T03:45:04.118Z,76.51
2023-02-08T03:46:04.148Z,75.49
2023-02-08T03:47:04.110Z,76.34
2023-02-08T03:48:04.050Z,75.47
2023-02-08T03:49:05.043Z,76.24
2023-02-08T03:50:04.028Z,73.18
2023-02-08T03:51:04.002Z,75.24
2023-02-08T03:52:04.009Z,75.29
2023-02-08T03:53:03.982Z,74.10
2023-02-08T03:54:03.935Z,76.06
2023-02-08T03:55:03.915Z,72.89
2023-02-08T03:56:03.892Z,74.13
2023-02-08T03:57:03.916Z,76.03
2023-02-08T03:58:03.846Z,77.35
2023-02-08T03:59:03.859Z,77.74
2023-02-08T04:00:03.821Z,75.94
2023-02-08T04:01:03.827Z,76.13
2023-02-08T04:02:03.805Z,74.77
2023-02-08T04:03:03.745Z,75.98
2023-02-08T04:04:03.722Z,76.38
2023-02-08T04:05:03.700Z,76.66
2023-02-08T04:06:03.681Z,77.17
2023-02-08T04:07:03.693Z,74.11
2023-02-08T04:08:03.640Z,76.75
2023-02-08T04:09:03.619Z,75.00
2023-02-08T04:10:03.599Z,76.04
2023-02-08T04:11:03.576Z,74.73
2023-02-08T04:12:03.578Z,75.81
2023-02-08T04:13:03.531Z,76.66
2023-02-08T04:14:03.507Z,76.12
2023-02-08T04:15:03.487Z,75.23
2023-02-08T04:16:03.520Z,75.85
2023-02-08T04:17:03.477Z,78.48
2023-02-08T04:18:03.441Z,77.26
2023-02-08T04:19:03.416Z,77.44
2023-02-08T04:20:03.383Z,75.66
2023-02-08T04:21:03.365Z,75.98
2023-02-08T04:22:03.374Z,77.27
2023-02-08T04:23:03.325Z,75.99
2023-02-08T04:24:03.312Z,76.68
2023-02-08T04:25:03.287Z,76.78
2023-02-08T04:26:03.268Z,74.19
2023-02-08T04:27:05.759Z,76.06
2023-02-08T04:28:03.270Z,76.93
2023-02-08T04:29:03.207Z,75.82
2023-02-08T04:30:03.181Z,76.07
2023-02-08T04:31:03.254Z,78.03
2023-02-08T04:32:03.166Z,75.35
2023-02-08T04:33:03.119Z,75.68
2023-02-08T04:34:03.098Z,74.70
2023-02-08T04:35:03.088Z,77.83
2023-02-08T04:36:03.062Z,77.75
2023-02-08T04:37:03.068Z,77.29
2023-02-08T04:38:03.020Z,76.52
2023-02-08T04:39:03.004Z,76.62
2023-02-08T04:40:02.979Z,77.37
2023-02-08T04:41:02.961Z,77.12
2023-02-08T04:42:03.424Z,76.95
2023-02-08T04:43:03.918Z,76.23
2023-02-08T04:44:02.899Z,75.22
2023-02-08T04:45:02.874Z,74.99
2023-02-08T04:46:02.886Z,76.45
2023-02-08T04:47:02.861Z,76.17
2023-02-08T04:48:02.819Z,78.95
2023-02-08T04:49:02.794Z,78.44
2023-02-08T04:50:02.772Z,76.88
2023-02-08T04:51:02.779Z,77.21
2023-02-08T04:52:02.761Z,75.87
2023-02-08T04:53:02.709Z,76.18
2023-02-08T04:54:02.687Z,79.40
2023-02-08T04:55:02.675Z,76.73
2023-02-08T04:56:02.656Z,77.83
2023-02-08T04:57:02.675Z,78.16
2023-02-08T04:58:02.607Z,78.44
2023-02-08T04:59:02.583Z,76.10
2023-02-08T05:00:02.571Z,76.89
2023-02-08T05:01:02.540Z,77.71
2023-02-08T05:02:02.554Z,77.22
2023-02-08T05:03:02.504Z,77.45
2023-02-08T05:04:02.483Z,77.14
2023-02-08T05:05:02.486Z,76.17
2023-02-08T05:06:02.473Z,76.67
2023-02-08T05:07:02.456Z,76.23
2023-02-08T05:08:02.422Z,76.81
2023-02-08T05:09:02.393Z,77.45
2023-02-08T05:10:02.353Z,76.87
2023-02-08T05:11:02.341Z,76.14
2023-02-08T05:12:02.346Z,77.59
2023-02-08T05:13:02.301Z,76.86
2023-02-08T05:14:02.283Z,77.19
2023-02-08T05:15:02.251Z,75.39
2023-02-08T05:16:02.382Z,77.71
2023-02-08T05:17:02.251Z,77.67
2023-02-08T05:18:02.201Z,76.05
2023-02-08T05:19:02.181Z,77.94
2023-02-08T05:20:02.155Z,77.59
2023-02-08T05:21:02.135Z,77.68
2023-02-08T05:22:02.143Z,74.95
2023-02-08T05:23:02.097Z,77.56
2023-02-08T05:24:02.081Z,77.71
2023-02-08T05:25:02.051Z,77.08
2023-02-08T05:26:02.040Z,76.96
2023-02-08T05:27:02.048Z,77.26
2023-02-08T05:28:02.017Z,77.11
2023-02-08T05:29:01.979Z,77.44
2023-02-08T05:30:01.959Z,78.13
2023-02-08T05:31:01.998Z,75.30
2023-02-08T05:32:02.004Z,76.19
2023-02-08T05:33:01.894Z,78.18
2023-02-08T05:34:01.878Z,74.95
2023-02-08T05:35:01.857Z,77.31
2023-02-08T05:36:03.220Z,77.66
2023-02-08T05:37:01.842Z,78.17
2023-02-08T05:38:01.798Z,76.17
2023-02-08T05:39:01.771Z,77.26
2023-02-08T05:40:01.751Z,76.01
2023-02-08T05:41:01.730Z,76.55
2023-02-08T05:42:01.743Z,76.19
2023-02-08T05:43:01.692Z,78.35
2023-02-08T05:44:01.678Z,78.08
2023-02-08T05:45:01.651Z,76.07
2023-02-08T05:46:01.641Z,77.69
2023-02-08T05:47:01.679Z,78.37
2023-02-08T05:48:01.593Z,78.75
2023-02-08T05:49:01.571Z,76.73
2023-02-08T05:50:01.577Z,73.75
2023-02-08T05:51:01.541Z,77.70
2023-02-08T05:52:01.580Z,77.25
2023-02-08T05:53:01.528Z,78.61
2023-02-08T05:54:01.469Z,77.40
2023-02-08T05:55:01.459Z,76.72
2023-02-08T05:56:01.435Z,78.55
2023-02-08T05:57:01.438Z,77.59
2023-02-08T05:58:01.391Z,77.29
2023-02-08T05:59:01.371Z,75.83
2023-02-08T06:00:01.356Z,78.50
2023-02-08T06:01:01.327Z,77.91
2023-02-08T06:02:01.334Z,77.37
2023-02-08T06:03:01.336Z,76.59
2023-02-08T06:04:01.288Z,75.92
2023-02-08T06:05:01.256Z,75.57
2023-02-08T06:06:01.228Z,76.62
2023-02-08T06:07:01.241Z,76.56
2023-02-08T06:08:01.199Z,77.51
2023-02-08T06:09:01.180Z,77.73
2023-02-08T06:10:01.165Z,76.15
2023-02-08T06:11:01.136Z,75.26
2023-02-08T06:12:01.160Z,77.54
2023-02-08T06:13:01.089Z,77.39
2023-02-08T06:14:01.071Z,76.95
2023-02-08T06:15:01.052Z,76.82
2023-02-08T06:16:01.034Z,76.64
2023-02-08T06:17:01.082Z,73.87
2023-02-08T06:18:00.987Z,74.56
2023-02-08T06:19:00.968Z,74.48
2023-02-08T06:20:00.954Z,75.58
2023-02-08T06:21:00.925Z,75.47
2023-02-08T06:22:00.913Z,75.53
2023-02-08T06:23:00.915Z,76.34
2023-02-08T06:24:01.390Z,76.07
2023-02-08T06:25:00.856Z,76.42
2023-02-08T06:26:00.831Z,74.64
2023-02-08T06:27:00.814Z,76.36
2023-02-08T06:28:00.846Z,75.14
2023-02-08T06:29:00.776Z,75.65
2023-02-08T06:30:00.751Z,74.95
2023-02-08T06:31:00.724Z,78.34
2023-02-08T06:32:01.762Z,77.24
2023-02-08T06:33:00.716Z,75.30
2023-02-08T06:34:01.342Z,77.27
2023-02-08T06:35:00.656Z,76.77
2023-02-08T06:36:00.629Z,76.23
2023-02-08T06:37:00.610Z,77.57
2023-02-08T06:38:00.611Z,77.39
2023-02-08T06:39:00.568Z,77.72
2023-02-08T06:40:00.558Z,76.62
2023-02-08T06:41:00.525Z,77.00
2023-02-08T06:42:00.519Z,77.65
2023-02-08T06:43:00.525Z,76.25
2023-02-08T06:44:00.471Z,76.79
2023-02-08T06:45:00.452Z,77.36
2023-02-08T06:46:00.539Z,77.68
2023-02-08T06:47:00.406Z,76.02
2023-02-08T06:48:00.417Z,77.69
2023-02-08T06:49:00.395Z,77.81
2023-02-08T06:50:00.350Z,77.59
2023-02-08T06:51:00.326Z,76.32
2023-02-08T06:52:00.311Z,77.35
2023-02-08T06:53:00.315Z,76.62
2023-02-08T06:54:00.271Z,77.14
2023-02-08T06:55:00.244Z,75.31
2023-02-08T06:56:00.228Z,76.39
2023-02-08T06:57:00.213Z,77.69
2023-02-08T06:58:00.223Z,77.13
2023-02-08T06:59:00.166Z,78.65
2023-02-08T07:00:00.151Z,77.95
2023-02-08T07:01:00.146Z,78.67
2023-02-08T07:02:01.313Z,78.50
2023-02-08T07:03:01.119Z,77.24
2023-02-08T07:04:00.095Z,77.10
2023-02-08T07:05:00.061Z,76.97
2023-02-08T07:06:05.039Z,78.44
2023-02-08T07:07:02.022Z,77.65
2023-02-08T07:08:00.027Z,77.69
2023-02-08T07:08:59.976Z,79.50
2023-02-08T07:09:59.954Z,79.22
2023-02-08T07:10:59.935Z,78.43
2023-02-08T07:11:59.922Z,77.53
2023-02-08T07:12:59.926Z,77.32
2023-02-08T07:13:59.877Z,75.73
2023-02-08T07:14:59.853Z,77.56
2023-02-08T07:15:59.840Z,77.90
2023-02-08T07:17:00.428Z,75.64
2023-02-08T07:17:59.826Z,76.32
2023-02-08T07:19:00.756Z,75.57
2023-02-08T07:19:59.762Z,76.77
2023-02-08T07:20:59.745Z,76.46
2023-02-08T07:21:59.729Z,76.07
2023-02-08T07:22:59.741Z,73.60
2023-02-08T07:23:59.686Z,75.51
2023-02-08T07:24:59.693Z,75.06
2023-02-08T07:25:59.651Z,76.21
2023-02-08T07:26:59.633Z,73.56
2023-02-08T07:27:59.647Z,75.27
2023-02-08T07:28:59.599Z,73.46
2023-02-08T07:29:59.587Z,73.54
2023-02-08T07:30:59.566Z,74.47
2023-02-08T07:31:59.561Z,75.13
2023-02-08T07:32:59.558Z,75.40
2023-02-08T07:33:59.517Z,74.00
2023-02-08T07:34:59.498Z,74.19
2023-02-08T07:36:00.474Z,74.45
2023-02-08T07:36:59.461Z,75.55
2023-02-08T07:37:59.468Z,73.96
2023-02-08T07:38:59.418Z,74.80
2023-02-08T07:39:59.409Z,74.21
2023-02-08T07:41:00.258Z,72.02
2023-02-08T07:41:59.361Z,72.98
2023-02-08T07:42:59.385Z,72.69
2023-02-08T07:43:59.318Z,73.57
2023-02-08T07:44:59.322Z,72.07
2023-02-08T07:45:59.311Z,72.95
2023-02-08T07:46:59.288Z,73.13
2023-02-08T07:47:59.292Z,73.69
2023-02-08T07:48:59.251Z,73.67
2023-02-08T07:49:59.759Z,74.29
2023-02-08T07:50:59.175Z,73.32
2023-02-08T07:51:59.181Z,73.09
2023-02-08T07:52:59.161Z,73.39
2023-02-08T07:53:59.115Z,71.33
2023-02-08T07:54:59.091Z,72.58
2023-02-08T07:55:59.072Z,72.80
2023-02-08T07:57:00.567Z,74.24
2023-02-08T07:57:59.076Z,75.25
2023-02-08T07:58:59.013Z,72.05
2023-02-08T07:59:59.002Z,72.70
2023-02-08T08:00:59.614Z,74.67
2023-02-08T08:01:59.001Z,73.99
2023-02-08T08:02:58.958Z,73.31
2023-02-08T08:03:58.941Z,73.53
2023-02-08T08:04:58.896Z,75.34
2023-02-08T08:05:58.880Z,72.50
2023-02-08T08:06:58.870Z,74.09
2023-02-08T08:07:58.887Z,75.07
2023-02-08T08:08:58.838Z,75.36
2023-02-08T08:09:58.799Z,74.88
2023-02-08T08:10:58.787Z,74.82
2023-02-08T08:11:58.762Z,73.62
2023-02-08T08:12:58.771Z,74.98
2023-02-08T08:13:58.727Z,71.80
2023-02-08T08:14:58.713Z,72.92
2023-02-08T08:15:58.718Z,75.53
2023-02-08T08:16:58.669Z,75.54
2023-02-08T08:17:58.692Z,73.22
2023-02-08T08:18:58.636Z,74.73
2023-02-08T08:19:58.616Z,73.30
2023-02-08T08:20:58.594Z,74.82
2023-02-08T08:21:58.577Z,72.80
2023-02-08T08:22:58.592Z,74.83
2023-02-08T08:23:59.430Z,74.03
2023-02-08T08:24:58.518Z,74.42
2023-02-08T08:25:58.502Z,73.62
2023-02-08T08:26:58.494Z,74.84
2023-02-08T08:27:58.548Z,74.69
2023-02-08T08:28:58.473Z,74.67
2023-02-08T08:29:58.421Z,74.78
2023-02-08T08:30:58.444Z,74.65
2023-02-08T08:31:58.379Z,73.86
2023-02-08T08:32:58.394Z,73.69
2023-02-08T08:33:58.867Z,74.71
2023-02-08T08:34:58.325Z,74.68
2023-02-08T08:35:58.314Z,73.27
2023-02-08T08:36:58.290Z,70.89
2023-02-08T08:37:58.299Z,75.16
2023-02-08T08:38:58.255Z,74.77
2023-02-08T08:39:58.236Z,74.87
2023-02-08T08:40:58.212Z,74.40
2023-02-08T08:41:58.194Z,71.41
2023-02-08T08:42:58.220Z,73.59
2023-02-08T08:43:58.165Z,73.21
2023-02-08T08:44:58.136Z,73.16
2023-02-08T08:45:58.141Z,74.11
2023-02-08T08:46:58.090Z,73.93
2023-02-08T08:47:59.113Z,72.75
2023-02-08T08:48:58.065Z,73.90
2023-02-08T08:49:58.055Z,75.97
2023-02-08T08:50:58.035Z,74.53
2023-02-08T08:51:58.015Z,72.67
2023-02-08T08:52:58.021Z,74.09
2023-02-08T08:53:57.971Z,71.87
2023-02-08T08:54:57.951Z,71.58
2023-02-08T08:55:57.932Z,72.84
2023-02-08T08:56:57.908Z,73.54
2023-02-08T08:57:57.916Z,73.14
2023-02-08T08:58:57.878Z,72.71
2023-02-08T08:59:57.860Z,72.51
2023-02-08T09:00:57.848Z,74.41
2023-02-08T09:01:57.859Z,74.10
2023-02-08T09:02:57.847Z,72.92
2023-02-08T09:03:57.786Z,74.64
2023-02-08T09:04:57.756Z,74.01
2023-02-08T09:05:57.736Z,74.24
2023-02-08T09:06:57.717Z,74.07
2023-02-08T09:07:57.736Z,73.33
2023-02-08T09:08:57.686Z,73.15
2023-02-08T09:09:57.660Z,73.74
2023-02-08T09:10:57.643Z,74.27
2023-02-08T09:11:57.623Z,73.17
2023-02-08T09:12:57.702Z,72.71
2023-02-08T09:13:57.613Z,73.85
2023-02-08T09:14:57.568Z,74.45
2023-02-08T09:15:57.566Z,73.72
2023-02-08T09:16:57.539Z,73.35
2023-02-08T09:17:57.513Z,74.62
2023-02-08T09:18:57.529Z,74.09
2023-02-08T09:19:57.484Z,72.55
2023-02-08T09:20:58.244Z,72.51
2023-02-08T09:21:57.440Z,71.03
2023-02-08T09:22:57.430Z,74.78
2023-02-08T09:23:57.441Z,74.26
2023-02-08T09:24:57.387Z,73.79
2023-02-08T09:25:57.369Z,73.79
2023-02-08T09:26:57.353Z,71.37
2023-02-08T09:27:57.345Z,72.75
2023-02-08T09:28:57.335Z,72.88
2023-02-08T09:29:58.197Z,74.33
2023-02-08T09:30:57.368Z,73.71
2023-02-08T09:31:57.319Z,73.87
2023-02-08T09:32:57.238Z,73.66
2023-02-08T09:33:57.244Z,73.57
2023-02-08T09:34:57.194Z,73.49
2023-02-08T09:35:57.193Z,72.00
2023-02-08T09:36:57.175Z,73.45
2023-02-08T09:37:57.147Z,72.63
2023-02-08T09:38:57.153Z,72.04
2023-02-08T09:39:57.105Z,73.30
2023-02-08T09:40:57.086Z,72.89
2023-02-08T09:41:57.075Z,74.99
2023-02-08T09:42:57.057Z,72.88
2023-02-08T09:43:57.054Z,72.53
2023-02-08T09:44:58.017Z,73.93
2023-02-08T09:46:00.190Z,73.58
2023-02-08T09:46:58.015Z,71.95
2023-02-08T09:47:56.965Z,71.09
2023-02-08T09:48:56.984Z,68.67
2023-02-08T09:49:58.605Z,71.55
2023-02-08T09:50:57.914Z,74.31
2023-02-08T09:51:57.005Z,72.06
2023-02-08T09:52:56.872Z,74.75
2023-02-08T09:53:56.891Z,73.50
2023-02-08T09:54:56.837Z,72.59
2023-02-08T09:55:59.493Z,74.68
2023-02-08T09:56:57.808Z,73.08
2023-02-08T09:57:56.784Z,73.85
2023-02-08T09:58:56.832Z,74.86
2023-02-08T09:59:56.753Z,74.10
2023-02-08T10:00:56.743Z,74.91
2023-02-08T10:01:56.707Z,73.86
2023-02-08T10:02:56.698Z,73.24
2023-02-08T10:03:56.705Z,73.35
2023-02-08T10:04:56.656Z,73.75
2023-02-08T10:05:57.205Z,70.97
2023-02-08T10:06:56.618Z,73.88
2023-02-08T10:07:56.600Z,73.60
2023-02-08T10:08:56.632Z,75.02
2023-02-08T10:09:56.564Z,74.12
2023-02-08T10:10:56.546Z,74.69
2023-02-08T10:11:58.231Z,76.53
2023-02-08T10:12:57.505Z,73.47
2023-02-08T10:13:56.524Z,73.03
2023-02-08T10:14:56.472Z,74.30
2023-02-08T10:15:56.481Z,72.61
2023-02-08T10:16:56.431Z,75.66
2023-02-08T10:17:58.049Z,75.14
2023-02-08T10:18:58.238Z,74.54
2023-02-08T10:19:56.378Z,74.10
2023-02-08T10:20:56.352Z,74.44
2023-02-08T10:21:56.331Z,73.48
2023-02-08T10:22:56.308Z,71.60
2023-02-08T10:23:56.317Z,74.33
2023-02-08T10:24:56.267Z,73.31
2023-02-08T10:25:56.259Z,74.63
2023-02-08T10:26:56.224Z,72.97
2023-02-08T10:27:56.246Z,74.15
2023-02-08T10:28:56.214Z,75.98
2023-02-08T10:29:56.176Z,74.16
2023-02-08T10:30:56.805Z,76.27
2023-02-08T10:31:56.158Z,76.11
2023-02-08T10:32:56.118Z,75.19
2023-02-08T10:33:56.123Z,74.54
2023-02-08T10:34:56.077Z,74.28
2023-02-08T10:35:56.043Z,75.91
2023-02-08T10:36:56.025Z,76.92
2023-02-08T10:37:56.000Z,75.13
2023-02-08T10:38:56.012Z,75.08
2023-02-08T10:39:55.953Z,73.16
2023-02-08T10:40:55.939Z,72.76
2023-02-08T10:41:55.910Z,74.90
2023-02-08T10:42:55.887Z,76.00
2023-02-08T10:43:55.902Z,75.22
2023-02-08T10:44:55.849Z,74.25
2023-02-08T10:45:55.843Z,72.29
2023-02-08T10:46:55.809Z,73.15
2023-02-08T10:47:55.781Z,75.20
2023-02-08T10:48:55.791Z,75.36
2023-02-08T10:49:55.732Z,74.91
2023-02-08T10:50:55.712Z,75.69
2023-02-08T10:51:55.727Z,73.95
2023-02-08T10:52:55.677Z,75.12
2023-02-08T10:53:55.682Z,75.42
2023-02-08T10:54:55.631Z,73.62
2023-02-08T10:55:55.616Z,73.84
2023-02-08T10:56:56.346Z,74.25
2023-02-08T10:57:55.575Z,72.94
2023-02-08T10:58:55.583Z,73.27
2023-02-08T10:59:55.529Z,74.34
2023-02-08T11:00:55.541Z,74.08
2023-02-08T11:01:55.494Z,74.12
2023-02-08T11:02:55.473Z,73.96
2023-02-08T11:03:55.514Z,74.78
2023-02-08T11:04:55.435Z,74.59
2023-02-08T11:05:55.416Z,74.90
2023-02-08T11:06:55.402Z,76.17
2023-02-08T11:07:55.376Z,74.50
2023-02-08T11:08:55.399Z,74.53
2023-02-08T11:09:55.373Z,74.88
2023-02-08T11:10:55.326Z,74.13
2023-02-08T11:11:55.301Z,74.08
2023-02-08T11:12:55.302Z,71.83
2023-02-08T11:13:55.268Z,75.99
2023-02-08T11:14:55.288Z,75.36
2023-02-08T11:15:55.229Z,75.34
2023-02-08T11:16:55.227Z,75.81
2023-02-08T11:17:55.189Z,73.26
2023-02-08T11:18:55.199Z,74.79
2023-02-08T11:19:55.154Z,74.16
2023-02-08T11:20:55.131Z,74.09
2023-02-08T11:21:55.113Z,73.33
2023-02-08T11:22:55.105Z,73.06
2023-02-08T11:23:55.126Z,75.28
2023-02-08T11:24:55.082Z,73.72
2023-02-08T11:25:55.044Z,73.94
2023-02-08T11:26:55.022Z,75.13
2023-02-08T11:27:55.037Z,76.45
2023-02-08T11:28:56.018Z,76.57
2023-02-08T11:29:55.002Z,74.29
2023-02-08T11:30:54.968Z,75.64
2023-02-08T11:31:54.979Z,74.67
2023-02-08T11:32:54.919Z,73.84
2023-02-08T11:33:54.905Z,75.60
2023-02-08T11:34:54.920Z,77.26
2023-02-08T11:35:54.864Z,76.48
2023-02-08T11:36:55.853Z,75.47
2023-02-08T11:37:54.838Z,73.85
2023-02-08T11:38:54.816Z,74.70
2023-02-08T11:39:54.837Z,76.51
2023-02-08T11:40:54.789Z,76.12
2023-02-08T11:41:54.770Z,76.27
2023-02-08T11:42:54.754Z,75.65
2023-02-08T11:43:54.761Z,73.87
2023-02-08T11:44:54.715Z,75.38
2023-02-08T11:45:54.707Z,73.98
2023-02-08T11:46:54.682Z,75.59
2023-02-08T11:47:54.666Z,75.38
2023-02-08T11:48:55.221Z,76.00
2023-02-08T11:49:54.630Z,76.25
2023-02-08T11:50:54.608Z,73.27
2023-02-08T11:51:54.595Z,76.13
2023-02-08T11:52:54.570Z,75.07
2023-02-08T11:53:54.587Z,75.30
2023-02-08T11:54:54.538Z,73.91
2023-02-08T11:55:54.519Z,73.09
2023-02-08T11:56:54.511Z,75.65
2023-02-08T11:57:54.488Z,76.26
2023-02-08T11:58:54.496Z,76.75
2023-02-08T11:59:54.450Z,72.85
2023-02-08T12:00:54.435Z,74.65
2023-02-08T12:01:54.413Z,75.29
2023-02-08T12:02:54.396Z,75.86
2023-02-08T12:03:56.704Z,74.83
2023-02-08T12:04:54.364Z,74.81
2023-02-08T12:05:54.347Z,75.14
2023-02-08T12:06:54.331Z,75.44
2023-02-08T12:07:54.322Z,75.29
2023-02-08T12:08:54.324Z,74.72
2023-02-08T12:09:54.287Z,75.22
2023-02-08T12:10:54.246Z,74.76
2023-02-08T12:11:54.242Z,75.16
2023-02-08T12:12:54.223Z,73.75
2023-02-08T12:13:54.235Z,75.71
2023-02-08T12:14:54.196Z,75.97
2023-02-08T12:15:58.762Z,74.39
2023-02-08T12:16:56.150Z,73.84
2023-02-08T12:17:54.133Z,74.37
2023-02-08T12:18:54.168Z,76.05
2023-02-08T12:19:54.124Z,75.17
2023-02-08T12:20:54.143Z,74.60
2023-02-08T12:21:54.714Z,74.72
2023-02-08T12:22:54.050Z,73.56
2023-02-08T12:23:54.058Z,75.19
2023-02-08T12:24:54.014Z,74.62
2023-02-08T12:25:54.024Z,74.37
2023-02-08T12:26:53.977Z,75.86
2023-02-08T12:27:53.966Z,73.23
2023-02-08T12:28:53.936Z,74.97
2023-02-08T12:29:53.924Z,75.87
2023-02-08T12:30:53.975Z,75.23
2023-02-08T12:31:53.898Z,74.92
2023-02-08T12:32:53.865Z,75.31
2023-02-08T12:33:53.900Z,75.08
2023-02-08T12:34:53.823Z,73.89
2023-02-08T12:36:03.663Z,73.86
2023-02-08T12:36:55.784Z,75.55
2023-02-08T12:37:53.765Z,76.09
2023-02-08T12:38:53.772Z,75.51
2023-02-08T12:39:54.710Z,74.95
2023-02-08T12:40:53.705Z,74.63
2023-02-08T12:41:53.689Z,74.48
2023-02-08T12:42:53.668Z,73.97
2023-02-08T12:43:53.690Z,75.34
2023-02-08T12:44:53.636Z,75.22
2023-02-08T12:45:53.745Z,72.62
2023-02-08T12:46:53.597Z,75.38
2023-02-08T12:48:03.796Z,75.20
2023-02-08T12:48:55.606Z,73.92
2023-02-08T12:49:53.549Z,73.68
2023-02-08T12:50:53.522Z,76.42
2023-02-08T12:51:53.502Z,75.57